createdAt,value
2019-05-05T00:03:28.703Z,4.97
2019-05-05T00:08:47.016Z,6.58
2019-05-05T00:14:05.441Z,6.80
2019-05-05T00:19:29.460Z,8.05
2019-05-05T00:24:26.147Z,6.60
2019-05-05T00:29:34.702Z,6.00
2019-05-05T00:34:50.271Z,6.22
2019-05-05T00:40:00.170Z,6.92
2019-05-05T00:45:08.478Z,5.58
2019-05-05T00:50:25.099Z,6.22
2019-05-05T00:55:34.949Z,5.40
2019-05-05T01:00:56.602Z,5.00
2019-05-05T01:06:04.557Z,4.85
2019-05-05T01:11:09.479Z,5.20
2019-05-05T01:16:16.537Z,4.80
2019-05-05T01:21:25.391Z,4.37
2019-05-05T01:26:32.109Z,5.35
2019-05-05T01:31:45.060Z,3.90
2019-05-05T01:36:53.896Z,2.70
2019-05-05T01:41:58.385Z,4.53
2019-05-05T01:47:05.138Z,4.58
2019-05-05T01:52:14.890Z,5.12
2019-05-05T01:57:21.328Z,5.37
2019-05-05T02:02:34.331Z,6.70
2019-05-05T02:07:40.344Z,6.92
2019-05-05T02:12:50.608Z,5.37
2019-05-05T02:17:58.493Z,6.20
2019-05-05T02:23:05.642Z,16.05
2019-05-05T02:28:15.042Z,9.23
2019-05-05T02:33:21.608Z,11.83
2019-05-05T02:38:26.835Z,9.08
2019-05-05T02:43:36.062Z,9.00
2019-05-05T02:48:45.028Z,5.70
2019-05-05T02:53:56.069Z,6.20
2019-05-05T02:59:04.384Z,5.67
2019-05-05T03:04:16.626Z,5.60
2019-05-05T03:09:24.758Z,5.95
2019-05-05T03:14:30.660Z,3.97
2019-05-05T03:19:38.547Z,5.60
2019-05-05T03:24:49.311Z,6.05
2019-05-05T03:29:53.573Z,5.55
2019-05-05T03:35:04.383Z,5.78
2019-05-05T03:40:19.227Z,6.33
2019-05-05T03:45:24.499Z,6.28
2019-05-05T03:50:33.997Z,6.30
2019-05-05T03:55:43.954Z,6.80
2019-05-05T04:00:59.660Z,6.53
2019-05-05T04:06:29.585Z,6.85
2019-05-05T04:11:19.233Z,7.35
2019-05-05T04:17:10.061Z,7.58
2019-05-05T04:21:38.440Z,7.60
2019-05-05T04:26:47.657Z,7.60
2019-05-05T04:31:55.455Z,7.45
2019-05-05T04:37:08.464Z,7.53
2019-05-05T04:42:13.988Z,8.43
2019-05-05T04:47:24.536Z,7.67
2019-05-05T04:57:58.647Z,8.60
2019-05-05T05:02:58.028Z,8.88
2019-05-05T05:08:14.862Z,8.38
2019-05-05T05:13:19.237Z,8.45
2019-05-05T05:18:34.396Z,8.78
2019-05-05T05:23:40.428Z,8.73
2019-05-05T05:28:44.680Z,9.60
2019-05-05T05:33:52.130Z,10.05
2019-05-05T05:39:03.768Z,9.73
2019-05-05T05:44:17.108Z,8.85
2019-05-05T06:00:06.729Z,8.65
2019-05-05T06:05:23.852Z,8.30
2019-05-05T06:10:54.629Z,8.67
2019-05-05T06:15:47.107Z,7.55
2019-05-05T06:20:53.355Z,7.45
2019-05-05T06:25:57.407Z,6.90
2019-05-05T06:31:04.982Z,7.67
2019-05-05T06:36:09.282Z,7.17
2019-05-05T06:41:25.758Z,6.60
2019-05-05T06:46:48.061Z,6.80
2019-05-05T06:51:54.513Z,5.85
2019-05-05T06:56:58.361Z,5.60
2019-05-05T07:02:04.253Z,5.97
2019-05-05T07:07:10.507Z,5.50
2019-05-05T07:12:14.923Z,5.30
2019-05-05T07:17:19.155Z,5.17
2019-05-05T07:22:24.391Z,5.80
2019-05-05T07:27:30.516Z,5.60
2019-05-05T07:32:34.752Z,6.12
2019-05-05T07:37:39.022Z,5.92
2019-05-05T07:42:44.067Z,5.87
2019-05-05T07:47:48.477Z,5.87
2019-05-05T07:52:54.549Z,5.65
2019-05-05T07:57:58.689Z,6.42
2019-05-05T08:03:03.757Z,6.03
2019-05-05T08:08:08.106Z,5.47
2019-05-05T08:13:14.061Z,5.28
2019-05-05T08:18:20.151Z,5.75
2019-05-05T08:23:31.910Z,5.35
2019-05-05T08:28:36.698Z,5.08
2019-05-05T08:33:40.953Z,6.45
2019-05-05T08:38:45.385Z,5.40
2019-05-05T08:43:49.616Z,5.55
2019-05-05T08:48:53.881Z,5.10
2019-05-05T08:53:58.181Z,5.70
2019-05-05T08:59:03.635Z,5.05
2019-05-05T09:04:08.050Z,5.30
2019-05-05T09:09:14.241Z,4.45
2019-05-05T09:14:18.318Z,4.65
2019-05-05T09:19:23.993Z,3.80
2019-05-05T09:24:34.080Z,4.45
2019-05-05T09:29:43.984Z,4.65
2019-05-05T09:34:48.600Z,4.92
2019-05-05T09:39:55.815Z,4.00
2019-05-05T09:45:00.034Z,4.80
2019-05-05T09:50:07.921Z,4.47
2019-05-05T09:55:13.827Z,4.37
2019-05-05T10:00:18.058Z,4.92
2019-05-05T10:05:23.614Z,4.12
2019-05-05T10:10:28.007Z,4.17
2019-05-05T10:15:32.205Z,5.50
2019-05-05T10:20:36.410Z,5.95
2019-05-05T10:25:44.890Z,6.78
2019-05-05T10:30:49.174Z,5.25
2019-05-05T10:35:54.120Z,4.20
2019-05-05T10:40:58.520Z,5.22
2019-05-05T10:46:03.867Z,5.10
2019-05-05T10:51:08.209Z,4.87
2019-05-05T10:56:13.715Z,5.15
2019-05-05T11:01:18.117Z,4.95
2019-05-05T11:06:22.330Z,5.12
2019-05-05T11:11:28.175Z,5.20
2019-05-05T11:16:32.385Z,5.20
2019-05-05T11:21:36.624Z,5.95
2019-05-05T11:26:40.903Z,5.20
2019-05-05T11:31:45.206Z,5.72
2019-05-05T11:36:57.090Z,5.37
2019-05-05T11:42:01.321Z,5.92
2019-05-05T11:47:24.959Z,5.97
2019-05-05T11:52:29.240Z,5.70
2019-05-05T11:57:33.466Z,5.90
2019-05-05T12:02:37.849Z,4.15
2019-05-05T12:07:43.675Z,5.28
2019-05-05T12:12:48.094Z,5.75
2019-05-05T12:17:54.435Z,5.15
2019-05-05T12:22:59.960Z,5.28
2019-05-05T12:28:05.855Z,5.42
2019-05-05T12:33:10.218Z,5.42
2019-05-05T12:38:14.512Z,5.60
2019-05-05T12:43:18.702Z,5.90
2019-05-05T12:48:24.569Z,6.12
2019-05-05T12:53:28.780Z,5.83
2019-05-05T12:58:33.567Z,5.83
2019-05-05T13:03:38.017Z,5.47
2019-05-05T13:08:44.378Z,5.40
2019-05-05T13:13:48.560Z,4.95
2019-05-05T13:18:53.909Z,6.25
2019-05-05T13:24:04.393Z,4.87
2019-05-05T13:29:08.786Z,4.95
2019-05-05T13:34:13.673Z,5.10
2019-05-05T13:39:18.209Z,5.10
2019-05-05T13:44:27.127Z,5.42
2019-05-05T13:49:35.781Z,5.35
2019-05-05T13:54:40.065Z,4.87
2019-05-05T13:59:44.534Z,5.00
2019-05-05T14:04:48.995Z,5.33
2019-05-05T14:09:54.921Z,5.62
2019-05-05T14:14:59.756Z,5.20
2019-05-05T14:20:11.698Z,4.92
2019-05-05T14:25:13.848Z,4.45
2019-05-05T14:30:38.632Z,4.80
2019-05-05T14:35:50.464Z,4.47
2019-05-05T14:40:54.726Z,4.35
2019-05-05T14:45:58.934Z,4.35
2019-05-05T14:51:03.999Z,4.83
2019-05-05T14:56:08.374Z,4.90
2019-05-05T15:01:14.406Z,4.55
2019-05-05T15:06:26.820Z,5.20
2019-05-05T15:11:33.860Z,5.43
2019-05-05T15:16:38.125Z,5.30
2019-05-05T15:21:44.329Z,5.45
2019-05-05T15:26:52.098Z,4.60
2019-05-05T15:31:54.674Z,4.55
2019-05-05T15:36:58.991Z,4.75
2019-05-05T15:42:04.665Z,5.00
2019-05-05T15:47:09.002Z,5.25
2019-05-05T15:52:13.733Z,5.72
2019-05-05T15:57:18.330Z,7.30
2019-05-05T16:02:23.990Z,5.83
2019-05-05T16:07:28.433Z,5.95
2019-05-05T16:12:36.539Z,4.40
2019-05-05T16:17:46.997Z,4.58
2019-05-05T16:23:11.135Z,4.47
2019-05-05T16:28:15.460Z,4.45
2019-05-05T16:33:21.130Z,4.20
2019-05-05T16:38:25.431Z,4.85
2019-05-05T16:43:29.305Z,4.58
2019-05-05T16:48:34.369Z,5.10
2019-05-05T16:53:38.924Z,4.95
2019-05-05T16:58:45.106Z,4.70
2019-05-05T17:03:49.208Z,4.87
2019-05-05T17:08:53.506Z,5.45
2019-05-05T17:14:11.513Z,5.22
2019-05-05T17:19:17.616Z,4.92
2019-05-05T17:24:23.754Z,3.87
2019-05-05T17:29:27.832Z,4.17
2019-05-05T17:34:33.934Z,5.92
2019-05-05T17:39:39.771Z,4.10
2019-05-05T17:44:51.444Z,3.72
2019-05-05T17:49:59.907Z,3.80
2019-05-05T17:55:27.238Z,3.65
2019-05-05T18:00:34.081Z,3.98
2019-05-05T18:05:55.739Z,3.62
2019-05-05T18:11:01.637Z,3.50
2019-05-05T18:16:06.016Z,4.20
2019-05-05T18:21:10.242Z,4.95
2019-05-05T18:26:14.484Z,4.17
2019-05-05T18:31:18.786Z,4.05
2019-05-05T18:36:23.103Z,4.45
2019-05-05T18:41:46.878Z,4.62
2019-05-05T18:47:13.137Z,5.25
2019-05-05T18:52:16.728Z,5.65
2019-05-05T18:57:20.974Z,4.28
2019-05-05T19:02:44.937Z,4.30
2019-05-05T19:08:08.836Z,4.40
2019-05-05T19:13:13.639Z,5.08
2019-05-05T19:18:18.018Z,4.80
2019-05-05T19:23:22.225Z,4.60
2019-05-05T19:28:44.383Z,5.10
2019-05-05T19:33:56.599Z,5.72
2019-05-05T19:42:29.654Z,4.58
2019-05-05T19:44:36.589Z,5.15
2019-05-05T19:49:44.828Z,5.20
2019-05-05T19:54:51.784Z,5.45
2019-05-05T20:00:00.731Z,6.33
2019-05-05T20:05:14.095Z,6.15
2019-05-05T20:10:27.647Z,5.95
2019-05-05T20:15:39.754Z,6.25
2019-05-05T20:20:45.618Z,5.80
2019-05-05T20:31:24.292Z,6.47
2019-05-05T20:37:14.951Z,6.10
2019-05-05T20:53:50.124Z,9.78
2019-05-05T21:10:01.327Z,11.22
2019-05-05T21:15:15.500Z,11.70
2019-05-05T21:21:24.797Z,9.68
2019-05-05T21:25:54.895Z,8.90
2019-05-05T21:31:00.826Z,8.53
2019-05-05T21:36:14.545Z,8.38
2019-05-05T21:41:26.745Z,9.30
2019-05-05T21:46:34.749Z,9.38
2019-05-05T21:51:49.300Z,9.33
2019-05-05T21:58:35.495Z,9.68
2019-05-05T22:02:23.553Z,8.95
2019-05-05T22:07:26.235Z,9.78
2019-05-05T22:19:20.430Z,11.80
2019-05-05T22:22:58.331Z,14.78
2019-05-05T22:28:15.981Z,10.25
2019-05-05T22:33:21.215Z,10.32
2019-05-05T22:38:28.612Z,9.78
2019-05-05T22:43:35.401Z,9.63
2019-05-05T22:48:44.014Z,9.28
2019-05-05T22:53:50.123Z,9.70
2019-05-05T22:58:57.790Z,9.10
2019-05-05T23:04:15.103Z,9.88
2019-05-05T23:09:19.546Z,8.98
2019-05-05T23:14:34.094Z,8.68
2019-05-05T23:20:00.582Z,8.88
2019-05-05T23:25:29.477Z,10.35
2019-05-05T23:30:41.842Z,9.48
2019-05-05T23:35:47.583Z,9.10
2019-05-05T23:40:56.852Z,8.93
2019-05-05T23:46:05.889Z,9.43
2019-05-05T23:51:16.772Z,9.48
2019-05-05T23:56:28.217Z,8.83
